createdAt,value
2017-11-23T00:01:07.521Z,93940.38
2017-11-23T00:03:35.848Z,93935.88
2017-11-23T00:06:04.187Z,93947.97
2017-11-23T00:08:32.538Z,93939.66
2017-11-23T00:11:00.915Z,93938.62
2017-11-23T00:13:29.255Z,93942.27
2017-11-23T00:15:57.588Z,93926.53
2017-11-23T00:18:25.934Z,93925.49
2017-11-23T00:20:54.255Z,93920.60
2017-11-23T00:23:22.718Z,93925.38
2017-11-23T00:25:51.048Z,93910.70
2017-11-23T00:28:19.386Z,93907.69
2017-11-23T00:30:47.811Z,93913.72
2017-11-23T00:33:16.326Z,93904.17
2017-11-23T00:35:44.752Z,93897.67
2017-11-23T00:38:13.147Z,93905.15
2017-11-23T00:40:41.590Z,93910.42
2017-11-23T00:43:10.138Z,93905.12
2017-11-23T00:45:38.670Z,93909.24
2017-11-23T00:48:07.093Z,93906.97
2017-11-23T00:50:35.443Z,93895.61
2017-11-23T00:53:03.779Z,93896.87
2017-11-23T00:55:32.115Z,93897.39
2017-11-23T00:58:00.464Z,93884.64
2017-11-23T01:00:28.847Z,93887.66
2017-11-23T01:02:57.188Z,93890.91
2017-11-23T01:05:25.527Z,93896.48
2017-11-23T01:07:53.896Z,93903.02
2017-11-23T01:10:22.246Z,93897.23
2017-11-23T01:12:50.589Z,93895.28
2017-11-23T01:15:18.924Z,93887.66
2017-11-23T01:17:47.264Z,93905.47
2017-11-23T01:20:15.633Z,93901.38
2017-11-23T01:22:43.967Z,93921.88
2017-11-23T01:25:12.310Z,93914.77
2017-11-23T01:27:40.655Z,93918.30
2017-11-23T01:30:09.012Z,93903.17
2017-11-23T01:32:37.372Z,93892.70
2017-11-23T01:35:05.727Z,93896.32
2017-11-23T01:37:34.067Z,93902.88
2017-11-23T01:40:02.405Z,93909.13
2017-11-23T01:42:30.771Z,93904.75
2017-11-23T01:44:59.130Z,93906.55
2017-11-23T01:50:02.075Z,93892.25
2017-11-23T01:52:30.420Z,93877.80
2017-11-23T01:54:58.772Z,93910.85
2017-11-23T01:57:27.111Z,93901.44
2017-11-23T01:59:55.437Z,93902.09
2017-11-23T02:02:23.796Z,93906.88
2017-11-23T02:04:52.119Z,93900.81
2017-11-23T02:07:20.467Z,93893.71
2017-11-23T02:09:48.828Z,93890.73
2017-11-23T02:12:17.160Z,93892.04
2017-11-23T02:14:45.538Z,93894.21
2017-11-23T02:17:14.744Z,93885.45
2017-11-23T02:19:43.085Z,93881.47
2017-11-23T02:22:11.437Z,93886.60
2017-11-23T02:24:39.784Z,93876.55
2017-11-23T02:27:08.148Z,93869.81
2017-11-23T02:29:36.482Z,93878.97
2017-11-23T02:32:04.821Z,93883.25
2017-11-23T02:34:33.163Z,93869.70
2017-11-23T02:37:01.514Z,93865.06
2017-11-23T02:39:29.883Z,93869.61
2017-11-23T02:41:58.211Z,93868.56
2017-11-23T02:44:26.549Z,93868.05
2017-11-23T02:46:54.904Z,93859.92
2017-11-23T02:49:23.241Z,93863.49
2017-11-23T02:51:51.616Z,93868.16
2017-11-23T02:54:19.948Z,93864.05
2017-11-23T02:56:48.280Z,93864.94
2017-11-23T02:59:16.611Z,93866.36
2017-11-23T03:01:44.952Z,93864.05
2017-11-23T03:04:13.329Z,93863.15
2017-11-23T03:06:41.672Z,93871.92
2017-11-23T03:09:10.024Z,93863.41
2017-11-23T03:11:38.363Z,93863.55
2017-11-23T03:14:06.701Z,93850.13
2017-11-23T03:16:35.163Z,93852.45
2017-11-23T03:19:03.513Z,93849.49
2017-11-23T03:21:31.859Z,93840.09
2017-11-23T03:24:00.201Z,93836.48
2017-11-23T03:26:28.532Z,93828.61
2017-11-23T03:28:56.877Z,93824.61
2017-11-23T03:31:25.353Z,93829.38
2017-11-23T03:33:53.687Z,93818.55
2017-11-23T03:36:22.032Z,93815.06
2017-11-23T03:38:50.373Z,93834.39
2017-11-23T03:41:18.712Z,93828.86
2017-11-23T03:43:47.171Z,93827.94
2017-11-23T03:46:15.508Z,93827.97
2017-11-23T03:48:43.855Z,93829.25
2017-11-23T03:51:12.208Z,93820.88
2017-11-23T03:53:40.560Z,93813.28
2017-11-23T03:56:08.927Z,93813.54
2017-11-23T03:58:37.271Z,93809.40
2017-11-23T04:01:05.611Z,93806.05
2017-11-23T04:03:33.958Z,93798.45
2017-11-23T04:06:02.350Z,93814.94
2017-11-23T04:08:30.680Z,93801.02
2017-11-23T04:10:59.027Z,93808.24
2017-11-23T04:13:27.377Z,93805.04
2017-11-23T04:15:55.716Z,93801.16
2017-11-23T04:18:24.096Z,93792.13
2017-11-23T04:20:52.440Z,93789.94
2017-11-23T04:23:20.774Z,93797.30
2017-11-23T04:25:49.117Z,93799.22
2017-11-23T04:28:17.457Z,93785.68
2017-11-23T04:30:45.824Z,93783.36
2017-11-23T04:33:14.163Z,93784.13
2017-11-23T04:35:42.500Z,93783.11
2017-11-23T04:38:10.838Z,93790.18
2017-11-23T04:40:39.174Z,93784.64
2017-11-23T04:43:07.540Z,93785.03
2017-11-23T04:45:35.871Z,93797.69
2017-11-23T04:48:04.227Z,93785.81
2017-11-23T04:50:32.564Z,93784.53
2017-11-23T04:53:00.913Z,93776.17
2017-11-23T04:55:29.279Z,93777.58
2017-11-23T04:57:57.631Z,93787.09
2017-11-23T05:00:25.977Z,93780.15
2017-11-23T05:02:54.333Z,93779.00
2017-11-23T05:05:22.667Z,93770.22
2017-11-23T05:07:51.033Z,93766.86
2017-11-23T05:10:19.385Z,93769.19
2017-11-23T05:12:47.753Z,93757.70
2017-11-23T05:15:16.096Z,93768.94
2017-11-23T05:17:44.431Z,93774.87
2017-11-23T05:20:12.813Z,93771.66
2017-11-23T05:22:41.152Z,93762.11
2017-11-23T05:25:09.491Z,93750.50
2017-11-23T05:27:37.833Z,93748.20
2017-11-23T05:30:06.164Z,93751.92
2017-11-23T05:32:34.526Z,93746.52
2017-11-23T05:35:02.868Z,93748.47
2017-11-23T05:37:31.216Z,93768.03
2017-11-23T05:39:59.555Z,93776.48
2017-11-23T05:42:27.891Z,93788.19
2017-11-23T05:44:56.255Z,93810.31
2017-11-23T05:47:24.620Z,93829.66
2017-11-23T05:49:52.959Z,93813.83
2017-11-23T05:52:21.308Z,93815.91
2017-11-23T05:54:49.653Z,93828.66
2017-11-23T05:57:18.020Z,93814.92
2017-11-23T05:59:46.362Z,93812.62
2017-11-23T06:02:14.715Z,93815.83
2017-11-23T06:04:43.047Z,93813.84
2017-11-23T06:07:11.389Z,93805.24
2017-11-23T06:09:39.768Z,93799.21
2017-11-23T06:12:08.109Z,93794.95
2017-11-23T06:14:36.559Z,93798.77
2017-11-23T06:17:04.916Z,93787.57
2017-11-23T06:19:33.267Z,93788.55
2017-11-23T06:22:01.656Z,93783.50
2017-11-23T06:24:30.089Z,93785.55
2017-11-23T06:26:58.421Z,93787.81
2017-11-23T06:29:26.764Z,93791.09
2017-11-23T06:31:55.095Z,93792.72
2017-11-23T06:34:23.561Z,93784.38
2017-11-23T06:36:51.973Z,93793.67
2017-11-23T06:39:20.315Z,93804.61
2017-11-23T06:41:49.468Z,93808.23
2017-11-23T06:44:17.944Z,93804.05
2017-11-23T06:46:46.431Z,93821.10
2017-11-23T06:49:14.827Z,93812.47
2017-11-23T06:51:43.199Z,93804.13
2017-11-23T06:54:11.544Z,93792.12
2017-11-23T06:56:39.902Z,93800.27
2017-11-23T06:59:08.285Z,93798.57
2017-11-23T07:01:36.636Z,93802.56
2017-11-23T07:04:04.979Z,93797.30
2017-11-23T07:06:33.318Z,93794.84
2017-11-23T07:09:01.663Z,93794.06
2017-11-23T07:11:30.086Z,93799.08
2017-11-23T07:13:58.440Z,93805.03
2017-11-23T07:16:26.781Z,93794.70
2017-11-23T07:18:55.136Z,93800.91
2017-11-23T07:21:23.474Z,93801.23
2017-11-23T07:23:51.838Z,93794.03
2017-11-23T07:26:20.176Z,93802.27
2017-11-23T07:28:52.460Z,93795.71
2017-11-23T07:31:20.805Z,93783.24
2017-11-23T07:33:49.154Z,93783.50
2017-11-23T07:36:17.502Z,93769.95
2017-11-23T07:38:45.870Z,93777.92
2017-11-23T07:41:14.254Z,93778.58
2017-11-23T07:43:42.604Z,93767.34
2017-11-23T07:46:10.940Z,93776.01
2017-11-23T07:48:39.316Z,93785.44
2017-11-23T07:51:07.658Z,93787.59
2017-11-23T07:53:36.004Z,93792.23
2017-11-23T07:56:04.341Z,93792.33
2017-11-23T07:58:32.712Z,93795.88
2017-11-23T08:01:01.184Z,93799.42
2017-11-23T08:03:29.525Z,93806.25
2017-11-23T08:05:57.860Z,93795.48
2017-11-23T08:08:26.191Z,93802.46
2017-11-23T08:10:54.532Z,93804.91
2017-11-23T08:13:22.901Z,93807.73
2017-11-23T08:15:51.248Z,93804.13
2017-11-23T08:18:19.589Z,93818.06
2017-11-23T08:20:47.923Z,93804.84
2017-11-23T08:23:16.273Z,93807.30
2017-11-23T08:25:44.650Z,93803.08
2017-11-23T08:28:12.996Z,93798.91
2017-11-23T08:30:41.335Z,93800.55
2017-11-23T08:33:09.692Z,93803.22
2017-11-23T08:35:38.040Z,93794.83
2017-11-23T08:38:06.511Z,93809.63
2017-11-23T08:40:34.851Z,93815.12
2017-11-23T08:43:03.193Z,93816.48
2017-11-23T08:45:31.542Z,93805.72
2017-11-23T08:47:59.912Z,93824.47
2017-11-23T08:50:28.288Z,93817.52
2017-11-23T08:52:57.524Z,93827.37
2017-11-23T08:55:26.773Z,93835.25
2017-11-23T08:57:55.120Z,93825.80
2017-11-23T09:00:23.461Z,93825.28
2017-11-23T09:02:51.836Z,93815.48
2017-11-23T09:05:20.180Z,93829.27
2017-11-23T09:07:48.520Z,93809.61
2017-11-23T09:10:16.865Z,93814.81
2017-11-23T09:12:45.209Z,93826.59
2017-11-23T09:15:13.579Z,93814.41
2017-11-23T09:17:41.932Z,93817.02
2017-11-23T09:20:10.270Z,93821.49
2017-11-23T09:22:38.617Z,93824.47
2017-11-23T09:25:06.953Z,93806.64
2017-11-23T09:27:35.794Z,93807.27
2017-11-23T09:30:04.147Z,93789.91
2017-11-23T09:32:32.482Z,93796.55
2017-11-23T09:35:00.828Z,93801.23
2017-11-23T09:37:29.165Z,93783.70
2017-11-23T09:39:57.546Z,93779.41
2017-11-23T09:42:25.879Z,93788.94
2017-11-23T09:44:54.220Z,93777.70
2017-11-23T09:47:22.575Z,93791.02
2017-11-23T09:49:50.916Z,93775.92
2017-11-23T09:52:19.384Z,93783.99
2017-11-23T09:54:47.715Z,93781.09
2017-11-23T09:57:16.060Z,93782.08
2017-11-23T09:59:44.407Z,93785.60
2017-11-23T10:02:12.736Z,93778.86
2017-11-23T10:04:41.115Z,93783.80
2017-11-23T10:07:09.468Z,93779.77
2017-11-23T10:09:37.812Z,93776.52
2017-11-23T10:12:06.160Z,93795.81
2017-11-23T10:14:40.105Z,93767.81
2017-11-23T10:17:08.443Z,93793.15
2017-11-23T10:19:36.783Z,93783.13
2017-11-23T10:22:05.121Z,93777.78
2017-11-23T10:24:33.472Z,93780.95
2017-11-23T10:27:01.812Z,93774.50
2017-11-23T10:29:30.148Z,93759.95
2017-11-23T10:31:58.596Z,93758.70
2017-11-23T10:34:26.940Z,93754.77
2017-11-23T10:36:55.279Z,93769.80
2017-11-23T10:39:23.679Z,93770.01
2017-11-23T10:41:52.044Z,93771.16
2017-11-23T10:44:20.415Z,93784.74
2017-11-23T10:46:48.784Z,93790.49
2017-11-23T10:49:17.130Z,93790.02
2017-11-23T10:51:45.470Z,93789.37
2017-11-23T10:54:13.852Z,93802.16
2017-11-23T10:56:42.206Z,93809.52
2017-11-23T10:59:10.545Z,93824.37
2017-11-23T11:01:38.917Z,93826.04
2017-11-23T11:04:07.253Z,93822.34
2017-11-23T11:06:35.594Z,93837.68
2017-11-23T11:09:03.934Z,93834.76
2017-11-23T11:11:32.283Z,93832.60
2017-11-23T11:14:00.664Z,93831.31
2017-11-23T11:16:29.013Z,93837.03
2017-11-23T11:18:57.354Z,93843.64
2017-11-23T11:21:25.696Z,93850.11
2017-11-23T11:23:54.065Z,93848.84
2017-11-23T11:26:22.531Z,93848.56
2017-11-23T11:28:50.874Z,93842.72
2017-11-23T11:31:19.215Z,93847.02
2017-11-23T11:33:47.572Z,93829.84
2017-11-23T11:36:15.909Z,93848.59
2017-11-23T11:38:44.278Z,93849.63
2017-11-23T11:41:12.628Z,93850.52
2017-11-23T11:43:40.967Z,93851.67
2017-11-23T11:46:09.307Z,93845.79
2017-11-23T11:48:37.646Z,93854.75
2017-11-23T11:51:06.050Z,93839.65
2017-11-23T11:53:34.389Z,93856.27
2017-11-23T11:56:02.732Z,93870.33
2017-11-23T11:58:31.074Z,93862.19
2017-11-23T12:00:59.424Z,93880.33
2017-11-23T12:03:27.801Z,93881.47
2017-11-23T12:05:56.151Z,93890.68
2017-11-23T12:08:24.552Z,93891.02
2017-11-23T12:10:52.892Z,93899.52
2017-11-23T12:13:21.345Z,93903.53
2017-11-23T12:16:01.232Z,93889.45
2017-11-23T12:21:42.107Z,93872.16
2017-11-23T12:24:12.272Z,93870.84
2017-11-23T12:29:34.027Z,93868.85
2017-11-23T12:32:02.377Z,93864.45
2017-11-23T12:34:30.810Z,93873.77
2017-11-23T12:36:59.152Z,93876.23
2017-11-23T12:39:36.104Z,93891.92
2017-11-23T12:42:04.439Z,93880.33
2017-11-23T12:44:32.780Z,93868.20
2017-11-23T12:47:01.133Z,93883.06
2017-11-23T12:49:29.476Z,93888.41
2017-11-23T12:51:57.849Z,93895.03
2017-11-23T12:54:26.205Z,93895.98
2017-11-23T12:56:54.552Z,93885.06
2017-11-23T12:59:22.892Z,93895.72
2017-11-23T13:01:51.241Z,93897.88
2017-11-23T13:04:19.617Z,93892.52
2017-11-23T13:06:47.961Z,93888.27
2017-11-23T13:09:16.298Z,93896.73
2017-11-23T13:11:44.640Z,93893.97
2017-11-23T13:14:12.983Z,93905.80
2017-11-23T13:16:41.353Z,93920.80
2017-11-23T13:19:09.693Z,93910.52
2017-11-23T13:21:38.050Z,93920.37
2017-11-23T13:24:06.395Z,93911.53
2017-11-23T13:26:34.735Z,93927.07
2017-11-23T13:29:03.119Z,93918.27
2017-11-23T13:31:31.464Z,93914.08
2017-11-23T13:33:59.815Z,93917.52
2017-11-23T13:36:28.179Z,93912.66
2017-11-23T13:38:56.515Z,93922.95
2017-11-23T13:41:24.901Z,93926.00
2017-11-23T13:43:53.246Z,93914.69
2017-11-23T13:46:21.588Z,93918.75
2017-11-23T13:48:49.932Z,93916.99
2017-11-23T13:51:18.274Z,93924.84
2017-11-23T13:53:46.640Z,93931.10
2017-11-23T13:56:14.976Z,93932.14
2017-11-23T13:58:43.314Z,93924.38
2017-11-23T14:01:11.667Z,93920.81
2017-11-23T14:03:40.008Z,93930.84
2017-11-23T14:06:08.404Z,93926.30
2017-11-23T14:08:36.746Z,93922.34
2017-11-23T14:11:05.084Z,93942.89
2017-11-23T14:13:33.427Z,93942.45
2017-11-23T14:16:01.765Z,93950.70
2017-11-23T14:18:30.238Z,93943.52
2017-11-23T14:20:58.579Z,93934.52
2017-11-23T14:23:26.927Z,93943.75
2017-11-23T14:25:55.267Z,93938.25
2017-11-23T14:28:23.604Z,93940.92
2017-11-23T14:30:51.976Z,93943.55
2017-11-23T14:33:20.330Z,93941.20
2017-11-23T14:35:48.677Z,93951.67
2017-11-23T14:38:17.029Z,93958.53
2017-11-23T14:40:46.286Z,93955.52
2017-11-23T14:43:14.660Z,93965.66
2017-11-23T14:45:43.018Z,93961.33
2017-11-23T14:48:11.373Z,93975.19
2017-11-23T14:50:39.708Z,93979.06
2017-11-23T14:53:08.073Z,93995.37
2017-11-23T14:55:36.461Z,93988.23
2017-11-23T14:58:04.798Z,93984.63
2017-11-23T15:00:33.131Z,94004.07
2017-11-23T15:03:01.473Z,94005.59
2017-11-23T15:05:29.839Z,94006.88
2017-11-23T15:07:58.230Z,93998.83
2017-11-23T15:10:26.579Z,94001.91
2017-11-23T15:12:54.925Z,93989.61
2017-11-23T15:15:23.263Z,94004.34
2017-11-23T15:17:51.620Z,94002.61
2017-11-23T15:20:19.994Z,94004.48
2017-11-23T15:22:48.335Z,94011.63
2017-11-23T15:25:16.681Z,94010.22
2017-11-23T15:27:45.024Z,94012.02
2017-11-23T15:30:13.364Z,94012.11
2017-11-23T15:32:41.822Z,94016.58
2017-11-23T15:35:10.175Z,94014.41
2017-11-23T15:37:38.526Z,94025.31
2017-11-23T15:40:06.868Z,94026.95
2017-11-23T15:42:35.227Z,94023.75
2017-11-23T15:45:03.634Z,94030.23
2017-11-23T15:47:31.983Z,94015.19
2017-11-23T15:50:00.325Z,94033.56
2017-11-23T15:52:28.663Z,94030.77
2017-11-23T15:54:56.998Z,94025.70
2017-11-23T15:57:25.369Z,94033.27
2017-11-23T15:59:53.719Z,94029.06
2017-11-23T16:02:22.057Z,94031.34
2017-11-23T16:04:50.409Z,94027.23
2017-11-23T16:07:18.739Z,94031.19
2017-11-23T16:09:47.146Z,94035.99
2017-11-23T16:12:15.635Z,94043.13
2017-11-23T16:14:44.069Z,94056.06
2017-11-23T16:17:12.449Z,94043.39
2017-11-23T16:19:40.795Z,94063.02
2017-11-23T16:22:09.152Z,94054.09
2017-11-23T16:24:37.500Z,94061.50
2017-11-23T16:27:05.980Z,94057.18
2017-11-23T16:29:35.760Z,94070.16
2017-11-23T16:32:04.885Z,94068.75
2017-11-23T16:34:33.230Z,94063.63
2017-11-23T16:37:03.331Z,94063.85
2017-11-23T16:39:36.132Z,94069.69
2017-11-23T16:42:09.964Z,94069.88
2017-11-23T16:44:59.220Z,94068.32
2017-11-23T16:50:52.227Z,94072.02
2017-11-23T16:53:27.173Z,94083.91
2017-11-23T16:56:01.186Z,94084.05
2017-11-23T17:01:36.161Z,94102.50
2017-11-23T17:04:05.339Z,94108.11
2017-11-23T17:06:39.238Z,94112.59
2017-11-23T17:09:07.868Z,94114.53
2017-11-23T17:11:41.721Z,94125.37
2017-11-23T17:14:15.660Z,94110.80
2017-11-23T17:16:49.680Z,94123.90
2017-11-23T17:19:18.513Z,94122.69
2017-11-23T17:21:46.858Z,94128.10
2017-11-23T17:24:15.192Z,94125.91
2017-11-23T17:26:43.528Z,94133.17
2017-11-23T17:29:11.906Z,94127.89
2017-11-23T17:31:41.184Z,94137.27
2017-11-23T17:34:09.512Z,94142.70
2017-11-23T17:36:37.849Z,94137.28
2017-11-23T17:39:06.204Z,94142.30
2017-11-23T17:41:34.587Z,94143.41
2017-11-23T17:44:02.929Z,94151.74
2017-11-23T17:46:31.268Z,94143.77
2017-11-23T17:48:59.606Z,94153.28
2017-11-23T17:51:27.951Z,94166.80
2017-11-23T17:53:56.320Z,94157.78
2017-11-23T17:56:24.657Z,94156.80
2017-11-23T17:58:52.991Z,94158.25
2017-11-23T18:01:21.349Z,94162.77
2017-11-23T18:03:49.707Z,94162.92
2017-11-23T18:06:18.070Z,94167.50
2017-11-23T18:08:46.403Z,94184.75
2017-11-23T18:11:14.744Z,94185.52
2017-11-23T18:13:43.090Z,94179.88
2017-11-23T18:16:11.425Z,94192.16
2017-11-23T18:18:39.762Z,94189.12
2017-11-23T18:21:08.102Z,94188.36
2017-11-23T18:23:36.482Z,94200.19
2017-11-23T18:26:05.189Z,94202.33
2017-11-23T18:28:33.572Z,94211.69
2017-11-23T18:31:01.909Z,94216.69
2017-11-23T18:33:30.248Z,94208.82
2017-11-23T18:35:58.656Z,94210.78
2017-11-23T18:38:27.035Z,94213.82
2017-11-23T18:40:55.417Z,94215.85
2017-11-23T18:43:23.782Z,94215.39
2017-11-23T18:45:52.143Z,94210.91
2017-11-23T18:48:20.519Z,94204.01
2017-11-23T18:50:49.759Z,94211.99
2017-11-23T18:53:18.097Z,94221.23
2017-11-23T18:55:46.447Z,94214.49
2017-11-23T18:58:14.791Z,94223.30
2017-11-23T19:00:43.312Z,94220.02
2017-11-23T19:03:11.661Z,94219.91
2017-11-23T19:05:40.018Z,94224.52
2017-11-23T19:08:08.347Z,94228.55
2017-11-23T19:10:36.697Z,94230.02
2017-11-23T19:13:05.086Z,94227.92
2017-11-23T19:15:33.449Z,94238.35
2017-11-23T19:18:01.781Z,94237.31
2017-11-23T19:20:30.130Z,94242.70
2017-11-23T19:22:58.479Z,94239.09
2017-11-23T19:25:26.872Z,94251.32
2017-11-23T19:27:55.220Z,94265.65
2017-11-23T19:30:23.568Z,94270.52
2017-11-23T19:32:51.909Z,94277.00
2017-11-23T19:35:20.253Z,94264.63
2017-11-23T19:37:48.719Z,94270.52
2017-11-23T19:40:17.069Z,94255.80
2017-11-23T19:42:45.400Z,94267.33
2017-11-23T19:45:13.799Z,94264.03
2017-11-23T19:47:42.157Z,94277.28
2017-11-23T19:50:10.489Z,94276.30
2017-11-23T19:52:38.834Z,94260.60
2017-11-23T19:55:07.208Z,94257.49
2017-11-23T19:57:35.561Z,94261.16
2017-11-23T20:00:03.891Z,94268.94
2017-11-23T20:02:32.250Z,94270.03
2017-11-23T20:05:00.598Z,94274.41
2017-11-23T20:07:28.932Z,94267.98
2017-11-23T20:09:57.282Z,94279.54
2017-11-23T20:12:25.628Z,94280.70
2017-11-23T20:14:53.968Z,94287.95
2017-11-23T20:17:22.324Z,94292.11
2017-11-23T20:20:10.280Z,94288.41
2017-11-23T20:22:38.783Z,94292.61
2017-11-23T20:25:07.132Z,94289.14
2017-11-23T20:27:35.815Z,94291.13
2017-11-23T20:30:04.209Z,94300.97
2017-11-23T20:32:32.556Z,94299.86
2017-11-23T20:35:00.911Z,94309.42
2017-11-23T20:37:29.390Z,94312.02
2017-11-23T20:39:57.752Z,94321.48
2017-11-23T20:42:26.097Z,94326.31
2017-11-23T20:44:54.542Z,94321.38
2017-11-23T20:47:22.889Z,94326.69
2017-11-23T20:49:51.228Z,94340.91
2017-11-23T20:52:19.605Z,94332.23
2017-11-23T20:54:47.946Z,94335.64
2017-11-23T20:57:16.284Z,94333.14
2017-11-23T20:59:44.632Z,94340.09
2017-11-23T21:02:12.977Z,94352.16
2017-11-23T21:04:41.421Z,94345.01
2017-11-23T21:07:09.761Z,94349.59
2017-11-23T21:09:38.103Z,94357.73
2017-11-23T21:12:06.493Z,94360.47
2017-11-23T21:14:34.840Z,94365.14
2017-11-23T21:17:03.188Z,94357.54
2017-11-23T21:19:31.530Z,94357.52
2017-11-23T21:21:59.868Z,94370.46
2017-11-23T21:24:28.237Z,94379.67
2017-11-23T21:26:56.589Z,94387.03
2017-11-23T21:29:24.957Z,94383.53
2017-11-23T21:31:53.305Z,94378.60
2017-11-23T21:34:21.645Z,94384.55
2017-11-23T21:36:50.111Z,94373.33
2017-11-23T21:39:18.541Z,94367.87
2017-11-23T21:41:46.910Z,94372.41
2017-11-23T21:44:15.259Z,94371.62
2017-11-23T21:46:43.601Z,94379.53
2017-11-23T21:49:11.976Z,94384.19
2017-11-23T21:51:40.348Z,94385.17
2017-11-23T21:54:08.688Z,94376.15
2017-11-23T21:56:37.047Z,94387.53
2017-11-23T21:59:05.400Z,94369.70
2017-11-23T22:01:33.776Z,94373.42
2017-11-23T22:04:02.125Z,94374.50
2017-11-23T22:06:30.475Z,94376.63
2017-11-23T22:08:58.813Z,94374.33
2017-11-23T22:11:27.275Z,94374.03
2017-11-23T22:13:55.704Z,94377.14
2017-11-23T22:16:24.085Z,94385.64
2017-11-23T22:18:52.456Z,94388.36
2017-11-23T22:21:20.804Z,94374.51
2017-11-23T22:23:49.164Z,94378.90
2017-11-23T22:26:17.519Z,94382.31
2017-11-23T22:28:45.866Z,94376.87
2017-11-23T22:31:14.243Z,94377.86
2017-11-23T22:33:42.588Z,94388.36
2017-11-23T22:36:10.943Z,94385.73
2017-11-23T22:38:39.290Z,94381.51
2017-11-23T22:41:07.658Z,94390.36
2017-11-23T22:43:36.145Z,94388.33
2017-11-23T22:46:04.487Z,94382.63
2017-11-23T22:48:32.885Z,94385.74
2017-11-23T22:51:01.232Z,94388.92
2017-11-23T22:53:29.585Z,94386.86
2017-11-23T22:55:57.967Z,94383.29
2017-11-23T22:58:26.323Z,94389.45
2017-11-23T23:00:54.673Z,94395.17
2017-11-23T23:03:23.024Z,94397.80
2017-11-23T23:05:51.387Z,94391.34
2017-11-23T23:08:19.761Z,94392.80
2017-11-23T23:10:49.270Z,94393.78
2017-11-23T23:13:17.792Z,94382.84
2017-11-23T23:15:46.419Z,94380.07
2017-11-23T23:18:14.766Z,94385.14
2017-11-23T23:20:43.161Z,94376.95
2017-11-23T23:23:11.490Z,94376.98
2017-11-23T23:25:39.843Z,94366.36
2017-11-23T23:28:08.195Z,94374.05
2017-11-23T23:30:36.540Z,94367.39
2017-11-23T23:33:04.919Z,94367.39
2017-11-23T23:35:33.277Z,94368.67
2017-11-23T23:38:01.652Z,94362.88
2017-11-23T23:40:30.004Z,94355.91
2017-11-23T23:42:58.351Z,94353.74
2017-11-23T23:45:26.700Z,94351.66
2017-11-23T23:47:55.048Z,94361.28
2017-11-23T23:50:23.429Z,94356.66
2017-11-23T23:52:51.780Z,94348.49
2017-11-23T23:55:20.119Z,94343.01
2017-11-23T23:57:48.470Z,94345.70
